Time;durP1;ratioP1;P1;durP2;ratioP2;P2;SDS_P1;SDS_P2;PMS_P1;PMS_P2;Temp;Humidity;BMP_temperature;BMP_pressure;BME280_temperature;BME280_humidity;BME280_pressure;Samples;Min_cycle;Max_cycle;Signal;HPM_P1;HPM_P2
2023/06/22 00:00:49;;;;;;;5.10;2.83;;;;;;;19.34;69.87;101780.13;5052444;28;20101;-82
2023/06/22 00:03:15;;;;;;;4.95;3.20;;;;;;;19.34;70.13;101773.97;5051698;28;20083;-82
2023/06/22 00:05:40;;;;;;;4.50;2.97;;;;;;;19.29;70.72;101781.28;5051129;28;20060;-81
2023/06/22 00:08:05;;;;;;;4.07;3.25;;;;;;;19.26;71.24;101771.69;5048228;28;20044;-81
2023/06/22 00:10:31;;;;;;;4.93;3.30;;;;;;;19.20;70.83;101757.03;5049193;28;20495;-81
2023/06/22 00:12:56;;;;;;;6.43;3.72;;;;;;;19.16;70.69;101759.88;5047683;28;20036;-81
2023/06/22 00:15:22;;;;;;;4.60;3.25;;;;;;;19.10;70.60;101768.94;5053566;28;20033;-82
2023/06/22 00:17:47;;;;;;;5.15;3.25;;;;;;;19.09;71.26;101773.34;5050408;28;20376;-82
2023/06/22 00:20:14;;;;;;;4.05;3.13;;;;;;;19.07;71.38;101771.72;5035156;28;20025;-82
2023/06/22 00:22:39;;;;;;;4.97;3.08;;;;;;;19.07;71.92;101766.44;5029572;28;20021;-82
2023/06/22 00:25:06;;;;;;;5.20;3.40;;;;;;;19.04;70.58;101771.88;5053423;28;20040;-82
2023/06/22 00:27:32;;;;;;;4.82;3.40;;;;;;;19.01;71.72;101777.28;5032225;28;20029;-82
2023/06/22 00:29:57;;;;;;;6.45;3.60;;;;;;;18.99;70.62;101784.41;5051720;28;20029;-82
2023/06/22 00:32:22;;;;;;;5.25;3.58;;;;;;;18.93;72.44;101786.38;5049128;28;20074;-82
2023/06/22 00:34:47;;;;;;;6.15;3.38;;;;;;;18.88;71.96;101776.94;5051410;28;20021;-82
2023/06/22 00:37:13;;;;;;;4.70;3.53;;;;;;;18.86;71.73;101784.94;5052084;28;20024;-82
2023/06/22 00:39:38;;;;;;;5.88;3.80;;;;;;;18.84;72.01;101784.16;5034102;28;20028;-82
2023/06/22 00:42:04;;;;;;;7.00;3.60;;;;;;;18.81;71.83;101781.66;5051170;28;20028;-81
2023/06/22 00:44:29;;;;;;;4.78;3.72;;;;;;;18.78;72.12;101773.91;5049468;28;20029;-82
2023/06/22 00:46:55;;;;;;;7.38;3.80;;;;;;;18.77;71.58;101770.41;5046674;28;20044;-82
2023/06/22 00:49:20;;;;;;;5.88;3.80;;;;;;;18.73;72.64;101765.34;5047374;28;20032;-81
2023/06/22 00:51:47;;;;;;;5.53;3.90;;;;;;;18.72;72.06;101767.09;5050641;28;20031;-82
2023/06/22 00:54:13;;;;;;;5.63;4.28;;;;;;;18.69;71.93;101769.03;5032048;28;20029;-81
2023/06/22 00:56:40;;;;;;;5.55;4.20;;;;;;;18.63;72.16;101773.66;5044123;28;20502;-82
2023/06/22 00:59:06;;;;;;;5.45;4.10;;;;;;;18.59;72.00;101766.81;5048750;28;20020;-81
2023/06/22 01:01:31;;;;;;;7.63;4.47;;;;;;;18.54;72.08;101758.25;5044509;28;20020;-82
2023/06/22 01:03:58;;;;;;;7.68;4.22;;;;;;;18.47;72.79;101756.81;5048788;28;20045;-82
2023/06/22 01:06:37;;;;;;;5.82;3.92;;;;;;;18.40;73.49;101761.50;5043104;28;20025;-81
2023/06/22 01:09:15;;;;;;;4.25;3.28;;;;;;;18.37;73.50;101763.41;5025383;28;20454;-83
2023/06/22 01:11:46;;;;;;;4.40;3.78;;;;;;;18.37;73.16;101758.16;5044126;28;20037;-82
2023/06/22 01:14:45;;;;;;;5.00;3.72;;;;;;;18.33;71.99;101749.53;5041857;28;20037;-81
2023/06/22 01:17:13;;;;;;;5.35;4.10;;;;;;;18.26;74.12;101743.69;5043626;28;20364;-82
2023/06/22 01:19:56;;;;;;;6.45;4.13;;;;;;;18.21;73.42;101756.19;5046969;28;20108;-81
2023/06/22 01:22:24;;;;;;;5.80;4.22;;;;;;;18.16;75.20;101751.13;5042494;28;20107;-82
2023/06/22 01:25:13;;;;;;;5.93;4.10;;;;;;;18.19;74.06;101760.66;5042506;28;20029;-81
2023/06/22 01:28:07;;;;;;;4.53;3.78;;;;;;;18.18;74.16;101761.59;5041131;28;20017;-81
2023/06/22 01:30:33;;;;;;;5.07;4.07;;;;;;;18.12;75.66;101756.56;5042669;28;20028;-81
2023/06/22 01:33:02;;;;;;;5.35;4.15;;;;;;;18.08;75.64;101755.00;5027242;28;20079;-81
2023/06/22 01:35:28;;;;;;;6.95;4.55;;;;;;;18.07;75.81;101763.84;5051272;28;20033;-82
2023/06/22 01:37:55;;;;;;;6.82;4.50;;;;;;;18.04;76.26;101756.91;5048815;28;20021;-82
2023/06/22 01:40:21;;;;;;;6.10;4.57;;;;;;;18.02;76.45;101767.50;5047750;28;20477;-82
2023/06/22 01:42:48;;;;;;;7.07;4.40;;;;;;;18.01;76.63;101763.16;5043435;28;20020;-81
2023/06/22 01:45:14;;;;;;;6.72;4.85;;;;;;;18.01;76.57;101763.16;5048865;28;20024;-82
2023/06/22 01:47:40;;;;;;;6.00;5.03;;;;;;;18.03;76.70;101758.69;5046902;28;20143;-82
2023/06/22 01:50:06;;;;;;;7.82;5.38;;;;;;;18.01;76.69;101750.00;5045336;28;20024;-82
2023/06/22 01:52:33;;;;;;;9.13;4.95;;;;;;;17.98;76.75;101744.03;5049984;28;20029;-82
2023/06/22 01:54:59;;;;;;;7.65;4.97;;;;;;;17.92;77.10;101737.22;5034071;28;20024;-82
2023/06/22 01:57:25;;;;;;;7.85;5.05;;;;;;;17.87;77.82;101740.00;5052119;28;20029;-82
2023/06/22 02:00:04;;;;;;;7.85;5.35;;;;;;;17.87;77.78;101744.44;5049843;28;20017;-82
2023/06/22 02:02:45;;;;;;;6.32;5.03;;;;;;;17.89;77.05;101748.72;5045323;28;20049;-82
2023/06/22 02:05:15;;;;;;;6.60;5.22;;;;;;;17.90;78.00;101742.53;5048098;28;20041;-82
2023/06/22 02:07:52;;;;;;;9.02;5.15;;;;;;;17.92;77.89;101738.97;5045645;28;20066;-81
2023/06/22 02:10:20;;;;;;;8.73;5.65;;;;;;;17.90;78.40;101737.25;5047055;28;20471;-82
2023/06/22 02:12:46;;;;;;;7.20;5.22;;;;;;;17.91;78.48;101738.13;5045198;28;20101;-81
2023/06/22 02:15:14;;;;;;;6.32;4.85;;;;;;;17.89;78.93;101746.06;5050263;28;20108;-81
2023/06/22 02:17:44;;;;;;;7.95;5.18;;;;;;;17.87;79.14;101741.81;5031958;28;20420;-82
2023/06/22 02:20:15;;;;;;;8.43;5.65;;;;;;;17.87;79.33;101742.66;5043610;28;20056;-81
2023/06/22 02:22:41;;;;;;;6.20;4.97;;;;;;;17.89;79.42;101745.22;5043829;28;20099;-82
2023/06/22 02:25:06;;;;;;;6.57;5.45;;;;;;;17.87;79.22;101736.53;5047468;28;20475;-82
2023/06/22 02:27:32;;;;;;;8.73;6.20;;;;;;;17.88;79.64;101735.63;5048219;28;20536;-82
2023/06/22 02:29:57;;;;;;;8.98;6.32;;;;;;;17.90;79.68;101736.41;5045239;28;20372;-81
2023/06/22 02:32:22;;;;;;;8.32;5.72;;;;;;;17.89;79.77;101739.97;5045413;28;20026;-82
2023/06/22 02:34:48;;;;;;;9.13;5.80;;;;;;;17.90;80.23;101734.63;5047420;28;20044;-81
2023/06/22 02:37:16;;;;;;;7.00;5.80;;;;;;;17.90;80.10;101736.41;5048591;28;20059;-81
2023/06/22 02:39:42;;;;;;;9.30;6.68;;;;;;;17.88;79.68;101733.00;5031463;28;20021;-81
2023/06/22 02:42:07;;;;;;;8.55;6.97;;;;;;;17.85;80.30;101723.44;5044660;28;20029;-81
2023/06/22 02:44:33;;;;;;;8.75;6.68;;;;;;;17.84;79.94;101720.88;5050494;28;20025;-81
2023/06/22 02:46:58;;;;;;;8.48;6.75;;;;;;;17.82;80.16;101707.78;5049742;28;20111;-82
2023/06/22 02:49:24;;;;;;;10.43;7.25;;;;;;;17.79;80.76;101712.31;5043220;28;20025;-81
2023/06/22 02:51:49;;;;;;;9.73;6.60;;;;;;;17.77;80.49;101715.00;5042461;28;20048;-82
2023/06/22 02:54:14;;;;;;;7.55;6.47;;;;;;;17.78;80.20;101715.84;5049033;28;20494;-82
2023/06/22 02:56:40;;;;;;;9.20;6.82;;;;;;;17.75;80.28;101712.47;5046356;28;20384;-82
2023/06/22 02:59:06;;;;;;;7.85;6.88;;;;;;;17.75;79.94;101708.97;5046876;28;20193;-82
2023/06/22 03:01:37;;;;;;;8.68;6.60;;;;;;;17.74;80.42;101700.22;5042956;28;20640;-81
2023/06/22 03:04:03;;;;;;;9.32;6.93;;;;;;;17.71;80.54;101708.25;5039379;28;20044;-81
2023/06/22 03:06:28;;;;;;;8.40;6.88;;;;;;;17.69;80.58;101707.44;5039305;28;20511;-82
2023/06/22 03:09:00;;;;;;;8.80;6.72;;;;;;;17.68;80.52;101704.84;5042140;28;20032;-81
2023/06/22 03:11:26;;;;;;;10.40;7.45;;;;;;;17.67;80.96;101704.00;5039402;28;20061;-81
2023/06/22 03:13:52;;;;;;;9.85;7.35;;;;;;;17.68;80.94;101707.50;5045838;28;20118;-81
2023/06/22 03:16:18;;;;;;;11.30;7.28;;;;;;;17.68;80.70;101689.94;5058095;28;20021;-82
2023/06/22 03:18:44;;;;;;;8.85;7.07;;;;;;;17.65;80.80;101690.06;5058118;28;20025;-82
2023/06/22 03:21:09;;;;;;;8.68;7.10;;;;;;;17.63;80.76;101691.91;5054546;28;20082;-82
2023/06/22 03:23:34;;;;;;;8.73;6.85;;;;;;;17.63;80.56;101697.16;5051690;28;20060;-81
2023/06/22 03:25:59;;;;;;;9.88;7.03;;;;;;;17.61;81.20;101699.00;5056476;28;20426;-82
2023/06/22 03:28:25;;;;;;;9.65;7.28;;;;;;;17.59;80.67;101690.34;5054440;28;20024;-82
2023/06/22 03:30:50;;;;;;;9.35;6.90;;;;;;;17.55;80.86;101686.13;5053218;28;20025;-82
2023/06/22 03:33:15;;;;;;;9.70;6.90;;;;;;;17.56;81.30;101687.84;5051804;28;20537;-82
2023/06/22 03:35:40;;;;;;;9.48;7.30;;;;;;;17.53;81.33;101686.16;5056614;28;20040;-82
2023/06/22 03:38:06;;;;;;;9.77;6.95;;;;;;;17.52;81.52;101688.88;5050671;28;20025;-82
2023/06/22 03:40:31;;;;;;;8.27;7.25;;;;;;;17.53;81.32;101688.78;5053589;28;20083;-82
2023/06/22 03:42:56;;;;;;;8.93;6.95;;;;;;;17.54;81.31;101684.41;5053669;28;20036;-81
2023/06/22 03:45:22;;;;;;;11.15;7.80;;;;;;;17.51;81.27;101680.09;5056968;28;20415;-81
2023/06/22 03:47:47;;;;;;;10.27;7.43;;;;;;;17.47;81.70;101680.31;5056088;28;20438;-82
2023/06/22 03:50:13;;;;;;;8.27;6.80;;;;;;;17.48;81.76;101677.63;5053519;28;20087;-81
2023/06/22 03:52:39;;;;;;;9.43;6.72;;;;;;;17.47;81.90;101681.19;5038708;28;20035;-82
2023/06/22 03:55:04;;;;;;;9.45;6.88;;;;;;;17.47;81.27;101677.66;5055956;28;20025;-82
2023/06/22 03:57:30;;;;;;;8.38;6.72;;;;;;;17.44;81.30;101674.25;5057424;28;20029;-82
2023/06/22 03:59:56;;;;;;;9.68;6.95;;;;;;;17.44;81.33;101676.03;5050978;28;20086;-81
2023/06/22 04:02:22;;;;;;;8.15;6.95;;;;;;;17.43;81.67;101672.53;5052392;28;20078;-81
2023/06/22 04:04:47;;;;;;;9.93;6.75;;;;;;;17.45;81.28;101672.50;5051717;28;20049;-81
2023/06/22 04:07:12;;;;;;;10.70;7.65;;;;;;;17.45;81.98;101669.84;5054639;28;20021;-82
2023/06/22 04:09:37;;;;;;;8.30;6.57;;;;;;;17.47;81.63;101672.41;5050726;28;20040;-81
2023/06/22 04:12:03;;;;;;;9.90;6.82;;;;;;;17.51;81.41;101671.38;5056483;28;20545;-81
2023/06/22 04:14:28;;;;;;;9.65;6.93;;;;;;;17.51;81.21;101671.38;5051760;28;20024;-82
2023/06/22 04:16:54;;;;;;;9.20;6.80;;;;;;;17.50;81.37;101667.91;5056489;28;20017;-81
2023/06/22 04:19:19;;;;;;;10.43;6.70;;;;;;;17.55;81.47;101668.53;5052436;28;20024;-81
2023/06/22 04:21:44;;;;;;;8.95;6.85;;;;;;;17.58;81.80;101667.56;5052893;28;20357;-82
2023/06/22 04:24:11;;;;;;;9.35;6.70;;;;;;;17.61;81.29;101667.41;5047523;28;20026;-81
2023/06/22 04:26:41;;;;;;;11.68;6.45;;;;;;;17.66;81.00;101664.63;5050928;28;20029;-81
2023/06/22 04:29:08;;;;;;;8.80;7.07;;;;;;;17.70;80.87;101669.69;5050995;28;20443;-81
2023/06/22 04:31:36;;;;;;;11.23;7.07;;;;;;;17.71;80.63;101665.25;5050130;28;20061;-82
2023/06/22 04:34:06;;;;;;;9.50;7.20;;;;;;;17.73;80.95;101664.28;5053311;28;20083;-81
2023/06/22 04:36:38;;;;;;;8.95;6.63;;;;;;;17.75;80.61;101665.09;5025883;28;20394;-82
2023/06/22 04:39:11;;;;;;;9.73;7.25;;;;;;;17.77;80.59;101666.75;5047923;28;20086;-82
2023/06/22 04:41:43;;;;;;;9.07;6.95;;;;;;;17.78;80.67;101658.81;5049783;28;20029;-82
2023/06/22 04:44:09;;;;;;;9.80;6.47;;;;;;;17.82;80.70;101664.81;5047634;28;20029;-82
2023/06/22 04:46:37;;;;;;;9.95;7.07;;;;;;;17.84;80.98;101661.19;5030228;28;20430;-82
2023/06/22 04:49:09;;;;;;;9.52;7.30;;;;;;;17.88;80.95;101669.81;5030950;28;20021;-81
2023/06/22 04:51:44;;;;;;;9.15;7.05;;;;;;;17.91;81.26;101669.69;5028063;28;20119;-82
2023/06/22 04:54:10;;;;;;;10.23;6.68;;;;;;;17.94;81.70;101669.53;5048628;28;20479;-82
2023/06/22 04:56:35;;;;;;;10.00;7.45;;;;;;;17.96;81.63;101667.69;5049591;28;20036;-82
2023/06/22 04:59:02;;;;;;;9.15;7.15;;;;;;;18.01;81.85;101675.44;5044454;28;20570;-82
2023/06/22 05:01:28;;;;;;;10.38;7.55;;;;;;;18.04;81.56;101676.16;5039495;28;20029;-82
2023/06/22 05:03:56;;;;;;;10.00;7.70;;;;;;;18.09;81.86;101672.47;5021963;28;20058;-82
2023/06/22 05:06:24;;;;;;;11.48;7.93;;;;;;;18.14;81.89;101670.47;5039702;28;20031;-82
2023/06/22 05:08:57;;;;;;;9.77;8.10;;;;;;;18.20;82.23;101670.19;5041705;28;22525;-82
2023/06/22 05:11:24;;;;;;;11.13;8.50;;;;;;;18.27;82.62;101666.38;5044061;28;20367;-82
2023/06/22 05:13:50;;;;;;;12.30;8.75;;;;;;;18.33;82.79;101660.81;5046411;28;20087;-82
2023/06/22 05:16:15;;;;;;;11.27;8.63;;;;;;;18.40;82.54;101660.53;5047057;28;20036;-82
2023/06/22 05:18:41;;;;;;;12.90;9.50;;;;;;;18.46;82.98;101668.16;5046917;28;21092;-81
2023/06/22 05:21:07;;;;;;;12.68;10.05;;;;;;;18.53;83.02;101666.94;5028360;28;20379;-81
2023/06/22 05:23:32;;;;;;;12.27;9.80;;;;;;;18.60;83.43;101673.66;5046494;28;20029;-81
2023/06/22 05:25:57;;;;;;;13.77;10.20;;;;;;;18.68;83.40;101669.78;5041405;28;20121;-81
2023/06/22 05:28:22;;;;;;;11.65;9.57;;;;;;;18.75;83.35;101671.22;5044470;28;20035;-82
2023/06/22 05:30:48;;;;;;;11.82;9.32;;;;;;;18.81;82.47;101676.19;5042195;28;20142;-82
2023/06/22 05:33:13;;;;;;;12.93;9.57;;;;;;;18.87;83.29;101675.91;5045235;28;20116;-82
2023/06/22 05:35:38;;;;;;;15.23;10.18;;;;;;;18.91;82.48;101682.75;5046608;28;20062;-81
2023/06/22 05:38:04;;;;;;;12.15;9.77;;;;;;;18.95;83.22;101687.00;5047664;28;20048;-82
2023/06/22 05:40:29;;;;;;;11.27;9.30;;;;;;;19.00;82.53;101678.00;5047195;28;20020;-82
2023/06/22 05:42:54;;;;;;;14.68;10.20;;;;;;;19.03;81.84;101672.56;5051608;28;20024;-82
2023/06/22 05:45:19;;;;;;;12.82;9.90;;;;;;;19.01;81.37;101672.66;5047428;28;20025;-82
2023/06/22 05:47:45;;;;;;;13.60;9.77;;;;;;;19.03;81.32;101672.56;5049799;28;20361;-82
2023/06/22 05:50:10;;;;;;;13.02;9.20;;;;;;;19.03;81.91;101670.81;5045793;28;20028;-82
2023/06/22 05:52:35;;;;;;;12.68;9.88;;;;;;;19.05;81.54;101666.28;5050537;28;20083;-82
2023/06/22 05:55:02;;;;;;;15.55;10.40;;;;;;;19.07;81.14;101666.22;5049418;28;20044;-82
2023/06/22 05:57:27;;;;;;;12.40;10.35;;;;;;;19.09;82.58;101664.38;5050007;28;20104;-82
2023/06/22 05:59:53;;;;;;;12.45;9.40;;;;;;;19.13;82.22;101659.78;5047820;28;20031;-82
2023/06/22 06:02:19;;;;;;;12.38;10.18;;;;;;;19.16;82.08;101655.22;5050296;28;20112;-82
2023/06/22 06:04:44;;;;;;;13.68;10.38;;;;;;;19.20;81.69;101662.06;5048368;28;20100;-82
2023/06/22 06:07:10;;;;;;;13.65;10.50;;;;;;;19.24;81.98;101657.47;5048250;28;20068;-82
2023/06/22 06:09:36;;;;;;;14.70;10.82;;;;;;;19.29;81.55;101663.38;5046525;28;20060;-81
2023/06/22 06:12:03;;;;;;;15.77;11.27;;;;;;;19.34;81.58;101658.75;5049452;28;20419;-82
2023/06/22 06:14:28;;;;;;;13.98;11.52;;;;;;;19.40;81.39;101662.84;5051739;28;20021;-82
2023/06/22 06:16:53;;;;;;;14.68;11.35;;;;;;;19.47;81.02;101658.13;5048028;28;20051;-82
2023/06/22 06:19:18;;;;;;;14.50;11.73;;;;;;;19.54;80.97;101660.38;5046022;28;20028;-82
2023/06/22 06:21:44;;;;;;;13.77;11.40;;;;;;;19.61;80.86;101660.06;5048391;28;20025;-82
2023/06/22 06:24:09;;;;;;;14.40;11.85;;;;;;;19.68;80.24;101661.44;5047217;28;20415;-82
2023/06/22 06:26:35;;;;;;;13.00;10.63;;;;;;;19.74;80.20;101663.78;5048011;28;20444;-82
2023/06/22 06:29:02;;;;;;;12.10;10.18;;;;;;;19.78;80.08;101659.19;5044313;28;20037;-82
2023/06/22 06:31:28;;;;;;;15.63;12.20;;;;;;;19.83;80.00;101655.38;5044701;28;20422;-82
2023/06/22 06:33:53;;;;;;;14.35;12.15;;;;;;;19.92;80.36;101658.50;5046519;28;20028;-82
2023/06/22 06:36:19;;;;;;;16.85;11.93;;;;;;;19.99;80.45;101665.16;5043121;28;20036;-82
2023/06/22 06:38:44;;;;;;;13.70;11.55;;;;;;;20.05;80.19;101669.28;5048677;28;20506;-82
2023/06/22 06:41:09;;;;;;;15.48;11.20;;;;;;;20.11;79.56;101668.94;5045246;28;20051;-82
2023/06/22 06:43:35;;;;;;;14.30;11.23;;;;;;;20.18;80.14;101665.06;5049890;28;20515;-82
2023/06/22 06:46:00;;;;;;;13.88;10.82;;;;;;;20.24;79.40;101664.72;5045716;28;20172;-82
2023/06/22 06:48:25;;;;;;;13.13;11.45;;;;;;;20.30;79.24;101653.00;5041583;28;20384;-82
2023/06/22 06:50:50;;;;;;;15.32;11.82;;;;;;;20.34;78.84;101656.31;5049462;28;20032;-82
2023/06/22 06:53:16;;;;;;;15.77;12.18;;;;;;;20.36;78.50;101647.34;5049714;28;20494;-82
2023/06/22 06:55:41;;;;;;;16.50;12.57;;;;;;;20.40;79.00;101648.06;5027252;28;20040;-82
2023/06/22 06:58:08;;;;;;;14.25;11.55;;;;;;;20.43;78.24;101654.03;5047140;28;20033;-81
2023/06/22 07:00:33;;;;;;;15.23;10.98;;;;;;;20.44;77.75;101650.44;5047092;28;20032;-82
2023/06/22 07:02:58;;;;;;;13.52;11.88;;;;;;;20.46;77.10;101651.22;5041004;28;20049;-81
2023/06/22 07:05:24;;;;;;;13.93;11.80;;;;;;;20.50;77.80;101653.66;5035540;28;20412;-82
2023/06/22 07:07:49;;;;;;;14.57;12.07;;;;;;;20.53;76.90;101653.50;5043693;28;20063;-82
2023/06/22 07:10:15;;;;;;;14.77;11.52;;;;;;;20.54;77.60;101650.78;5043623;28;20029;-81
2023/06/22 07:12:40;;;;;;;12.73;10.60;;;;;;;20.56;78.02;101648.91;5041574;28;20392;-82
2023/06/22 07:15:09;;;;;;;15.13;11.48;;;;;;;20.57;76.84;101642.69;5045054;28;20491;-82
2023/06/22 07:17:41;;;;;;;14.80;11.70;;;;;;;20.60;76.61;101646.94;5043266;28;20039;-82
2023/06/22 07:20:11;;;;;;;13.63;11.82;;;;;;;20.63;77.40;101644.16;5048646;28;20029;-82
2023/06/22 07:22:37;;;;;;;14.00;11.93;;;;;;;20.67;77.23;101643.00;5041007;28;20478;-82
2023/06/22 07:25:09;;;;;;;15.73;11.65;;;;;;;20.70;76.63;101640.19;5043061;28;20055;-82
2023/06/22 07:27:42;;;;;;;13.55;11.40;;;;;;;20.73;76.44;101634.75;5039374;28;20116;-82
2023/06/22 07:30:08;;;;;;;16.05;12.05;;;;;;;20.76;75.88;101631.09;5048870;28;20079;-82
2023/06/22 07:32:34;;;;;;;15.60;12.13;;;;;;;20.79;75.23;101638.88;5027836;28;20075;-82
2023/06/22 07:34:59;;;;;;;17.27;11.85;;;;;;;20.83;74.90;101644.84;5046286;28;20427;-82
2023/06/22 07:37:24;;;;;;;17.17;12.02;;;;;;;20.85;74.47;101633.25;5042995;28;20052;-82
2023/06/22 07:39:53;;;;;;;16.48;12.43;;;;;;;20.88;74.53;101629.56;5049400;28;20031;-82
2023/06/22 07:42:19;;;;;;;15.95;11.88;;;;;;;20.91;74.37;101639.97;5023926;28;21471;-82
2023/06/22 07:44:44;;;;;;;14.52;12.30;;;;;;;20.95;75.07;101638.00;5046798;28;20032;-82
2023/06/22 07:47:09;;;;;;;16.25;12.52;;;;;;;20.98;73.73;101627.25;5049703;28;20108;-82
2023/06/22 07:49:35;;;;;;;14.27;11.98;;;;;;;21.02;74.68;101620.84;5046031;28;20031;-82
2023/06/22 07:52:01;;;;;;;14.20;11.50;;;;;;;21.05;73.75;101623.31;5048828;28;20534;-82
2023/06/22 07:54:26;;;;;;;16.13;12.57;;;;;;;21.09;74.17;101616.91;5044839;28;20033;-82
2023/06/22 07:56:53;;;;;;;14.98;11.52;;;;;;;21.13;72.79;101599.06;5048767;28;20392;-82
2023/06/22 07:59:18;;;;;;;15.07;11.60;;;;;;;21.20;72.47;101595.09;5029284;28;20021;-82
2023/06/22 08:01:43;;;;;;;15.25;10.02;;;;;;;21.30;72.53;101596.28;5050848;28;20226;-82
2023/06/22 08:04:09;;;;;;;13.95;11.43;;;;;;;21.41;72.43;101584.19;5051429;28;20283;-86
2023/06/22 08:06:34;;;;;;;13.15;11.27;;;;;;;21.55;73.29;101578.06;5053717;28;20020;-82
2023/06/22 08:08:59;;;;;;;15.07;11.35;;;;;;;21.66;72.72;101579.16;5044242;28;20037;-82
2023/06/22 08:11:25;;;;;;;12.98;10.40;;;;;;;21.75;71.38;101574.22;5048861;28;20036;-82
2023/06/22 08:13:50;;;;;;;13.02;10.10;;;;;;;21.81;71.49;101564.09;5047074;28;20091;-82
2023/06/22 08:16:16;;;;;;;10.23;8.32;;;;;;;21.86;70.13;101558.53;5042332;28;20033;-82
2023/06/22 08:18:41;;;;;;;10.48;7.85;;;;;;;21.88;68.76;101553.13;5049963;28;20049;-82
2023/06/22 08:21:06;;;;;;;10.13;8.00;;;;;;;21.87;67.74;101546.97;5043803;28;20026;-82
2023/06/22 08:23:32;;;;;;;10.10;8.32;;;;;;;21.87;67.82;101546.13;5045901;28;20032;-82
2023/06/22 08:25:57;;;;;;;10.75;9.23;;;;;;;21.88;67.44;101542.53;5045485;28;20029;-82
2023/06/22 08:28:22;;;;;;;9.93;7.75;;;;;;;21.88;66.62;101545.19;5045030;28;20479;-82
2023/06/22 08:30:47;;;;;;;11.20;8.55;;;;;;;21.89;67.67;101545.06;5049327;28;20029;-83
2023/06/22 08:33:13;;;;;;;9.32;8.32;;;;;;;21.93;68.41;101548.41;5050242;28;20025;-82
2023/06/22 08:35:38;;;;;;;11.32;8.15;;;;;;;21.94;65.99;101545.66;5050785;28;20024;-82
2023/06/22 08:38:04;;;;;;;11.80;8.15;;;;;;;21.94;66.49;101547.47;5044935;28;20400;-82
2023/06/22 08:40:29;;;;;;;10.10;8.13;;;;;;;21.97;66.43;101545.47;5051021;28;20094;-82
2023/06/22 08:42:54;;;;;;;8.88;7.70;;;;;;;22.00;66.91;101540.91;5050824;28;20086;-80
2023/06/22 08:45:20;;;;;;;11.73;7.53;;;;;;;22.06;67.39;101537.84;5049417;28;20060;-80
2023/06/22 08:47:45;;;;;;;11.13;8.38;;;;;;;22.11;67.34;101546.38;5045665;28;20074;-80
2023/06/22 08:50:11;;;;;;;10.23;7.45;;;;;;;22.14;66.71;101543.53;5048184;28;20020;-80
2023/06/22 08:52:40;;;;;;;9.70;8.02;;;;;;;22.17;66.51;101546.00;5050386;28;20120;-80
2023/06/22 08:55:06;;;;;;;11.05;8.43;;;;;;;22.20;66.14;101531.69;5051836;28;20100;-81
2023/06/22 08:57:32;;;;;;;8.90;7.75;;;;;;;22.21;65.91;101536.03;5050697;28;20135;-80
2023/06/22 08:59:58;;;;;;;14.73;9.27;;;;;;;22.17;64.85;101522.16;5033766;28;20025;-80
2023/06/22 09:02:24;;;;;;;10.40;7.95;;;;;;;22.15;64.89;101529.34;5050757;28;20028;-80
2023/06/22 09:04:55;;;;;;;12.10;8.80;;;;;;;22.13;65.53;101531.22;5051006;28;20021;-80
2023/06/22 09:07:23;;;;;;;10.02;8.20;;;;;;;22.11;64.79;101522.53;5050665;28;20028;-80
2023/06/22 09:09:48;;;;;;;10.88;8.55;;;;;;;22.09;65.25;101535.03;5028701;28;20027;-80
2023/06/22 09:12:14;;;;;;;10.00;7.25;;;;;;;22.07;64.83;101526.31;5048194;28;20055;-81
2023/06/22 09:14:39;;;;;;;8.43;7.10;;;;;;;22.05;65.25;101530.84;5052333;28;20031;-81
2023/06/22 09:17:05;;;;;;;10.77;7.47;;;;;;;22.04;64.89;101531.81;5048874;28;20035;-81
2023/06/22 09:19:30;;;;;;;10.60;8.13;;;;;;;22.02;64.36;101539.03;5050745;28;20078;-82
2023/06/22 09:21:55;;;;;;;10.38;7.93;;;;;;;22.00;64.33;101533.81;5044726;28;20537;-81
2023/06/22 09:24:20;;;;;;;8.95;7.65;;;;;;;21.98;64.47;101528.63;5043554;28;20037;-80
2023/06/22 09:26:46;;;;;;;8.95;7.30;;;;;;;21.98;64.67;101523.31;5045724;28;20547;-80
2023/06/22 09:29:11;;;;;;;9.55;7.40;;;;;;;21.97;64.94;101518.97;5046182;28;20500;-80
2023/06/22 09:31:36;;;;;;;11.32;8.13;;;;;;;21.98;65.03;101518.00;5033107;28;20549;-80
2023/06/22 09:34:02;;;;;;;9.52;7.40;;;;;;;22.00;65.51;101519.72;5044599;28;20025;-80
2023/06/22 09:36:27;;;;;;;8.93;7.75;;;;;;;22.02;65.50;101515.19;5042864;28;20648;-80
2023/06/22 09:38:55;;;;;;;12.05;8.35;;;;;;;22.04;65.19;101515.91;5047318;28;20021;-80
2023/06/22 09:41:21;;;;;;;9.05;7.40;;;;;;;22.03;65.29;101520.38;5031703;28;20031;-80
2023/06/22 09:43:48;;;;;;;11.15;8.13;;;;;;;22.02;65.22;101508.06;5042504;28;20118;-80
2023/06/22 09:46:15;;;;;;;11.18;7.78;;;;;;;22.00;64.72;101514.41;5042657;28;20039;-80
2023/06/22 09:48:40;;;;;;;8.43;7.20;;;;;;;21.97;64.38;101511.00;5044067;28;20166;-80
2023/06/22 09:51:05;;;;;;;9.15;7.13;;;;;;;21.97;64.87;101518.97;5044917;28;20029;-80
2023/06/22 09:53:31;;;;;;;9.18;7.57;;;;;;;21.94;64.37;101518.31;5042160;28;20028;-80
2023/06/22 09:55:57;;;;;;;9.55;7.30;;;;;;;21.93;65.20;101512.16;5041569;28;20024;-80
2023/06/22 09:58:22;;;;;;;11.23;7.85;;;;;;;21.90;65.35;101507.03;5041929;28;20085;-80
2023/06/22 10:00:47;;;;;;;12.35;7.93;;;;;;;21.90;65.73;101509.69;5042654;28;20112;-80
2023/06/22 10:03:12;;;;;;;11.43;7.32;;;;;;;21.87;65.81;101506.38;5040543;28;20075;-80
2023/06/22 10:05:38;;;;;;;8.50;6.85;;;;;;;21.87;65.61;101509.88;5048394;28;20396;-80
2023/06/22 10:08:03;;;;;;;12.32;7.72;;;;;;;21.86;65.28;101505.56;5045221;28;20064;-80
2023/06/22 10:10:28;;;;;;;9.52;7.43;;;;;;;21.86;65.47;101513.50;5043447;28;20495;-80
2023/06/22 10:13:02;;;;;;;9.75;7.18;;;;;;;21.87;65.18;101512.53;5041686;28;20020;-80
2023/06/22 10:15:27;;;;;;;10.40;7.82;;;;;;;21.87;65.48;101504.56;5049851;28;20052;-80
2023/06/22 10:17:53;;;;;;;8.45;7.05;;;;;;;21.89;65.54;101499.19;5045993;28;20065;-80
2023/06/22 10:20:18;;;;;;;9.02;7.45;;;;;;;21.91;65.25;101497.31;5047121;28;20552;-80
2023/06/22 10:22:44;;;;;;;12.73;7.75;;;;;;;21.94;65.57;101495.31;5040719;28;20387;-81
2023/06/22 10:25:11;;;;;;;10.18;7.40;;;;;;;21.98;65.90;101486.22;5039149;28;20048;-81
2023/06/22 10:27:39;;;;;;;9.07;7.60;;;;;;;22.01;65.56;101486.97;5041463;28;20032;-81
2023/06/22 10:30:06;;;;;;;10.27;7.68;;;;;;;22.02;65.95;101476.28;5025351;28;20145;-80
2023/06/22 10:32:32;;;;;;;10.35;7.97;;;;;;;22.04;66.04;101478.81;5041793;28;20041;-80
2023/06/22 10:34:57;;;;;;;10.88;7.28;;;;;;;22.06;65.63;101488.38;5048050;28;20070;-79
2023/06/22 10:37:22;;;;;;;9.93;7.53;;;;;;;22.07;66.15;101487.44;5047770;28;20025;-80
2023/06/22 10:39:47;;;;;;;9.68;7.95;;;;;;;22.09;66.39;101492.63;5045804;28;20013;-80
2023/06/22 10:42:13;;;;;;;10.40;8.30;;;;;;;22.09;65.81;101492.63;5045961;28;20032;-80
2023/06/22 10:44:41;;;;;;;9.40;7.68;;;;;;;22.09;65.48;101495.28;5042677;28;20088;-82
2023/06/22 10:47:06;;;;;;;11.38;7.88;;;;;;;22.08;65.73;101501.53;5040895;28;20047;-81
2023/06/22 10:49:31;;;;;;;8.55;7.18;;;;;;;22.05;65.98;101499.94;5043775;28;20523;-81
2023/06/22 10:51:57;;;;;;;8.60;7.38;;;;;;;22.04;65.72;101500.00;5044554;28;20511;-79
2023/06/22 10:54:22;;;;;;;9.10;7.55;;;;;;;22.01;65.45;101506.38;5039119;28;20037;-78
2023/06/22 10:56:47;;;;;;;8.43;7.20;;;;;;;21.99;65.51;101508.25;5045808;28;20026;-80
2023/06/22 10:59:13;;;;;;;11.48;6.95;;;;;;;21.98;65.96;101510.06;5045156;28;20498;-81
2023/06/22 11:01:38;;;;;;;10.20;7.95;;;;;;;21.96;66.38;101519.91;5043778;28;20056;-81
2023/06/22 11:04:04;;;;;;;9.05;7.65;;;;;;;21.94;66.00;101526.25;5048721;28;20064;-81
2023/06/22 11:06:29;;;;;;;10.02;7.78;;;;;;;21.93;66.26;101528.03;5030126;28;20028;-81
2023/06/22 11:08:55;;;;;;;8.40;7.47;;;;;;;21.92;66.60;101533.44;5029460;28;20121;-81
2023/06/22 11:11:20;;;;;;;9.00;7.05;;;;;;;21.90;67.03;101524.75;5044974;28;20029;-80
2023/06/22 11:13:45;;;;;;;9.85;7.47;;;;;;;21.90;69.11;101533.53;5041061;28;20321;-80
2023/06/22 11:16:11;;;;;;;9.88;8.30;;;;;;;21.91;71.37;101543.19;5042327;28;20134;-80